Macatuba, Brazil
Current Conditions -  °F | °C
As of 5:00 PM on Thursday 27 Nov 2014 (Local Time) from SBBU Reporting Station
Few Clouds Few Clouds  
Wind Chill: 86°   Ceiling: Unl
Heat Index: 93°   Visibility: 6mi
Dew Point: 73°   Wind: 6mph
Humidity: 66%   Direction: 220°SW
Pressure: 29.85"   Gusts: NA
Location:  22.5°S, 48.71°W
Report Text: SBBU 271900Z 22005KT 9999 FEW035 30/23 Q1011
Loading
Personal Weather Stations






























Interactive Weather Map New forecast layout! Learn more

10-Day Weather Forecast

Advertisements
Track Severe Weather on mobile